Time;durP1;ratioP1;P1;durP2;ratioP2;P2;SDS_P1;SDS_P2;PMS_P1;PMS_P2;Temp;Humidity;BMP_temperature;BMP_pressure;BME280_temperature;BME280_humidity;BME280_pressure;Samples;Min_cycle;Max_cycle;Signal;HPM_P1;HPM_P2
2022/03/04 00:00:57;;;;;;;21.67;13.60;;;5.20;56.30;;;;;;5021052;28;20064;-73
2022/03/04 00:03:23;;;;;;;18.67;12.40;;;5.20;56.30;;;;;;5019751;28;20475;-73
2022/03/04 00:05:48;;;;;;;17.58;11.75;;;5.20;56.50;;;;;;5012823;28;20080;-73
2022/03/04 00:08:14;;;;;;;21.73;13.93;;;5.10;56.50;;;;;;5010231;28;20026;-73
2022/03/04 00:10:40;;;;;;;19.02;12.63;;;5.10;56.70;;;;;;5011793;28;20041;-73
2022/03/04 00:13:06;;;;;;;18.90;12.50;;;5.10;56.80;;;;;;5021787;28;20504;-74
2022/03/04 00:15:32;;;;;;;21.40;13.60;;;5.10;56.90;;;;;;5011262;28;20038;-72
2022/03/04 00:17:57;;;;;;;19.85;12.88;;;5.00;56.90;;;;;;5019698;28;20088;-73
2022/03/04 00:20:23;;;;;;;20.38;13.70;;;5.00;57.00;;;;;;5016070;28;20058;-74
2022/03/04 00:22:49;;;;;;;16.95;11.52;;;5.00;57.20;;;;;;5018989;28;20037;-73
2022/03/04 00:25:14;;;;;;;17.38;12.10;;;4.90;57.00;;;;;;5017584;28;20029;-73
2022/03/04 00:27:40;;;;;;;21.52;13.85;;;4.90;57.10;;;;;;5023572;28;20045;-72
2022/03/04 00:30:07;;;;;;;17.90;12.38;;;4.80;57.30;;;;;;5017452;28;20151;-72
2022/03/04 00:32:33;;;;;;;20.23;13.07;;;4.90;57.40;;;;;;5018801;28;20761;-72
2022/03/04 00:34:59;;;;;;;20.55;12.35;;;4.80;57.60;;;;;;5020241;28;20026;-71
2022/03/04 00:37:24;;;;;;;18.80;12.57;;;4.80;57.70;;;;;;5023658;28;20135;-72
2022/03/04 00:39:50;;;;;;;18.80;12.45;;;4.80;57.80;;;;;;5014453;28;20045;-71
2022/03/04 00:42:15;;;;;;;21.00;13.68;;;4.80;58.00;;;;;;5012697;28;20085;-72
2022/03/04 00:44:41;;;;;;;18.77;11.90;;;4.70;58.20;;;;;;5013410;28;20466;-73
2022/03/04 00:47:07;;;;;;;19.70;13.05;;;4.70;58.30;;;;;;5020774;28;20023;-73
2022/03/04 00:49:34;;;;;;;23.17;14.07;;;4.70;58.40;;;;;;5022413;28;20069;-73
2022/03/04 00:51:59;;;;;;;20.75;12.77;;;4.70;58.30;;;;;;5016597;28;20041;-73
2022/03/04 00:54:25;;;;;;;19.77;12.93;;;4.60;58.50;;;;;;5019008;28;20029;-72
2022/03/04 00:56:51;;;;;;;20.52;13.82;;;4.70;58.80;;;;;;5022189;28;20112;-73
2022/03/04 00:59:16;;;;;;;18.80;12.52;;;4.60;58.70;;;;;;5014326;28;20037;-72
2022/03/04 01:01:42;;;;;;;20.90;13.98;;;4.60;58.80;;;;;;5008638;28;20847;-73
2022/03/04 01:04:07;;;;;;;18.45;11.00;;;4.60;59.00;;;;;;5010544;28;20022;-73
2022/03/04 01:06:33;;;;;;;21.73;13.77;;;4.60;58.70;;;;;;5021643;28;20045;-73
2022/03/04 01:08:58;;;;;;;22.15;14.38;;;4.60;59.10;;;;;;5013845;28;20080;-73
2022/03/04 01:11:24;;;;;;;17.02;11.70;;;4.50;59.20;;;;;;5014969;28;20036;-73
2022/03/04 01:13:50;;;;;;;18.27;12.02;;;4.50;59.20;;;;;;5027106;28;20025;-72
2022/03/04 01:16:15;;;;;;;22.40;13.70;;;4.50;59.10;;;;;;5016323;28;20570;-72
2022/03/04 01:18:41;;;;;;;21.55;13.02;;;4.50;59.70;;;;;;5010238;28;20128;-73
2022/03/04 01:21:06;;;;;;;19.85;12.05;;;4.50;59.60;;;;;;5008043;28;20152;-72
2022/03/04 01:23:32;;;;;;;18.42;11.77;;;4.50;59.50;;;;;;5018700;28;20041;-73
2022/03/04 01:25:57;;;;;;;21.30;13.20;;;4.50;59.40;;;;;;5011621;28;20022;-72
2022/03/04 01:28:23;;;;;;;18.52;12.00;;;4.50;59.70;;;;;;5013962;28;20029;-72
2022/03/04 01:30:49;;;;;;;18.17;11.65;;;4.40;59.70;;;;;;5011043;28;20026;-72
2022/03/04 01:33:15;;;;;;;19.63;12.65;;;4.40;59.80;;;;;;5017475;28;20124;-73
2022/03/04 01:35:41;;;;;;;18.20;12.25;;;4.40;59.90;;;;;;5014421;28;20149;-73
2022/03/04 01:38:07;;;;;;;19.92;12.75;;;4.40;59.90;;;;;;5008524;28;20116;-73
2022/03/04 01:40:32;;;;;;;19.38;12.30;;;4.30;60.70;;;;;;5014017;28;20026;-72
2022/03/04 01:42:58;;;;;;;20.75;13.32;;;4.30;60.10;;;;;;5005656;28;20054;-72
2022/03/04 01:45:24;;;;;;;20.52;13.00;;;4.30;60.60;;;;;;5005923;28;20034;-72
2022/03/04 01:47:49;;;;;;;21.73;13.57;;;4.30;60.60;;;;;;5016776;28;20107;-74
2022/03/04 01:50:15;;;;;;;21.42;13.00;;;4.20;60.60;;;;;;5019620;28;20113;-73
2022/03/04 01:52:41;;;;;;;20.63;13.27;;;4.20;60.90;;;;;;5015458;28;20475;-74
2022/03/04 01:55:08;;;;;;;20.95;12.93;;;4.20;61.20;;;;;;5017421;28;20047;-74
2022/03/04 01:57:34;;;;;;;18.20;11.90;;;4.20;61.20;;;;;;5020454;28;20038;-74
2022/03/04 02:00:00;;;;;;;20.58;12.70;;;4.20;61.20;;;;;;5011922;28;20489;-74
2022/03/04 02:02:26;;;;;;;20.92;13.23;;;4.20;61.20;;;;;;5014703;28;20075;-74
2022/03/04 02:04:52;;;;;;;21.83;13.35;;;4.20;61.30;;;;;;5011257;28;20404;-73
2022/03/04 02:07:18;;;;;;;20.88;12.25;;;4.10;61.40;;;;;;5005274;28;20037;-74
2022/03/04 02:09:43;;;;;;;18.15;12.02;;;4.10;61.30;;;;;;5011258;28;20560;-73
2022/03/04 02:12:09;;;;;;;19.95;11.73;;;4.20;61.50;;;;;;5007371;28;20413;-73
2022/03/04 02:14:35;;;;;;;16.65;10.57;;;4.20;61.40;;;;;;5008827;28;20026;-73
2022/03/04 02:17:00;;;;;;;24.20;13.15;;;4.10;61.30;;;;;;5010392;28;20022;-73
2022/03/04 02:19:26;;;;;;;20.25;13.00;;;4.10;61.30;;;;;;5011697;28;20061;-73
2022/03/04 02:21:54;;;;;;;20.00;12.25;;;4.10;61.60;;;;;;5009514;28;20454;-73
2022/03/04 02:24:22;;;;;;;18.45;11.45;;;4.10;61.80;;;;;;5013055;28;20032;-73
2022/03/04 02:26:48;;;;;;;20.88;13.05;;;4.00;61.70;;;;;;5007700;28;20066;-73
2022/03/04 02:29:14;;;;;;;19.17;11.65;;;4.00;61.80;;;;;;5021424;28;20022;-73
2022/03/04 02:31:40;;;;;;;22.67;14.27;;;4.00;61.80;;;;;;5009606;28;20066;-73
2022/03/04 02:34:06;;;;;;;20.13;12.50;;;4.00;62.10;;;;;;5014658;28;20063;-73
2022/03/04 02:36:32;;;;;;;19.30;12.02;;;3.90;62.10;;;;;;5016006;28;20477;-73
2022/03/04 02:38:57;;;;;;;18.95;11.18;;;3.90;62.00;;;;;;5011750;28;20037;-74
2022/03/04 02:41:23;;;;;;;19.38;12.65;;;3.90;62.20;;;;;;5021362;28;20022;-74
2022/03/04 02:43:48;;;;;;;19.50;11.90;;;3.90;62.60;;;;;;5008568;28;20033;-74
2022/03/04 02:46:14;;;;;;;19.50;12.73;;;3.90;62.60;;;;;;5011549;28;20381;-74
2022/03/04 02:48:40;;;;;;;18.38;11.25;;;3.80;62.70;;;;;;5016803;28;20061;-74
2022/03/04 02:51:06;;;;;;;16.98;10.48;;;3.80;62.60;;;;;;5025598;28;20033;-74
2022/03/04 02:53:32;;;;;;;15.13;9.77;;;3.80;62.50;;;;;;5018840;28;20038;-73
2022/03/04 02:55:57;;;;;;;18.05;11.75;;;3.80;62.30;;;;;;5021564;28;20424;-74
2022/03/04 02:58:23;;;;;;;19.45;12.52;;;3.80;62.60;;;;;;5020714;28;20491;-74
2022/03/04 03:00:49;;;;;;;17.75;11.23;;;3.80;62.70;;;;;;5024081;28;20025;-73
2022/03/04 03:03:14;;;;;;;18.02;11.35;;;3.80;62.60;;;;;;5009031;28;20103;-74
2022/03/04 03:05:40;;;;;;;18.10;11.18;;;3.80;63.00;;;;;;5011974;28;20103;-73
2022/03/04 03:08:05;;;;;;;18.77;11.43;;;3.70;63.00;;;;;;5008681;28;20040;-74
2022/03/04 03:10:34;;;;;;;20.05;12.32;;;3.70;63.10;;;;;;5015452;28;20065;-74
2022/03/04 03:13:00;;;;;;;20.10;11.88;;;3.60;63.40;;;;;;5017338;28;20105;-73
2022/03/04 03:15:26;;;;;;;20.02;11.60;;;3.60;63.50;;;;;;5015964;28;20113;-74
2022/03/04 03:17:52;;;;;;;18.88;12.05;;;3.60;63.70;;;;;;5017379;28;20516;-74
2022/03/04 03:20:18;;;;;;;19.92;12.15;;;3.50;63.70;;;;;;5018282;28;20041;-74
2022/03/04 03:22:43;;;;;;;21.42;12.65;;;3.50;63.80;;;;;;5008040;28;20033;-73
2022/03/04 03:25:09;;;;;;;21.35;12.93;;;3.50;64.10;;;;;;5010991;28;20467;-74
2022/03/04 03:27:35;;;;;;;21.67;13.18;;;3.50;64.20;;;;;;5011868;28;20152;-74
2022/03/04 03:30:02;;;;;;;20.50;12.82;;;3.40;64.50;;;;;;5016970;28;20080;-74
2022/03/04 03:32:28;;;;;;;17.83;11.30;;;3.40;64.80;;;;;;5019259;28;20060;-73
2022/03/04 03:34:53;;;;;;;24.58;14.18;;;3.40;64.70;;;;;;5017234;28;20061;-73
2022/03/04 03:37:19;;;;;;;19.13;11.95;;;3.30;65.00;;;;;;5013676;28;20362;-73
2022/03/04 03:39:44;;;;;;;19.58;12.88;;;3.30;65.00;;;;;;5019756;28;20037;-74
2022/03/04 03:42:10;;;;;;;21.10;12.98;;;3.30;65.10;;;;;;5013081;28;20092;-73
2022/03/04 03:44:35;;;;;;;21.73;13.68;;;3.30;65.40;;;;;;5002570;28;20023;-74
2022/03/04 03:47:01;;;;;;;21.55;12.80;;;3.20;65.80;;;;;;5012306;28;20034;-74
2022/03/04 03:49:27;;;;;;;18.75;12.07;;;3.20;65.80;;;;;;5024345;28;20036;-73
2022/03/04 03:51:52;;;;;;;20.77;13.48;;;3.20;65.70;;;;;;5021907;28;20614;-73
2022/03/04 03:54:18;;;;;;;21.10;12.48;;;3.10;66.10;;;;;;5017853;28;20490;-73
2022/03/04 03:56:43;;;;;;;20.98;12.52;;;3.10;66.00;;;;;;5012490;28;20500;-73
2022/03/04 03:59:09;;;;;;;21.77;12.80;;;3.10;66.10;;;;;;5026137;28;20029;-74
2022/03/04 04:01:35;;;;;;;21.58;13.38;;;3.10;66.20;;;;;;5021298;28;20026;-74
2022/03/04 04:04:00;;;;;;;19.08;13.00;;;3.00;66.20;;;;;;5006798;28;20572;-73
2022/03/04 04:06:26;;;;;;;19.52;12.20;;;3.00;66.30;;;;;;5015635;28;20026;-73
2022/03/04 04:08:52;;;;;;;21.48;13.70;;;3.00;66.40;;;;;;5010714;28;20025;-73
2022/03/04 04:11:18;;;;;;;19.58;12.32;;;3.00;66.40;;;;;;5012483;28;20029;-73
2022/03/04 04:13:43;;;;;;;19.42;12.02;;;3.00;67.00;;;;;;5016675;28;20412;-73
2022/03/04 04:16:09;;;;;;;19.88;13.02;;;3.00;66.50;;;;;;5018781;28;20021;-73
2022/03/04 04:18:36;;;;;;;19.50;12.25;;;2.90;66.80;;;;;;5015497;28;20041;-73
2022/03/04 04:21:02;;;;;;;23.35;13.80;;;3.00;66.90;;;;;;5018488;28;20105;-73
2022/03/04 04:23:28;;;;;;;19.17;12.30;;;2.90;67.30;;;;;;5010730;28;20034;-73
2022/03/04 04:25:54;;;;;;;19.85;11.63;;;2.80;67.30;;;;;;5012043;28;20022;-74
2022/03/04 04:28:21;;;;;;;19.90;12.60;;;2.90;67.30;;;;;;5019583;28;20619;-74
2022/03/04 04:30:47;;;;;;;22.90;13.45;;;2.80;67.60;;;;;;5004465;28;20023;-74
2022/03/04 04:33:12;;;;;;;23.27;14.57;;;2.80;67.70;;;;;;5017963;28;20021;-73
2022/03/04 04:35:38;;;;;;;22.80;13.77;;;2.70;68.00;;;;;;5011949;28;20107;-73
2022/03/04 04:38:04;;;;;;;23.27;14.00;;;2.70;68.20;;;;;;5009045;28;20042;-74
2022/03/04 04:40:30;;;;;;;22.98;14.15;;;2.60;68.40;;;;;;5017097;28;20092;-73
2022/03/04 04:42:55;;;;;;;22.20;13.43;;;2.60;68.50;;;;;;5010335;28;20030;-73
2022/03/04 04:45:21;;;;;;;21.65;13.40;;;2.60;68.60;;;;;;5011170;28;20470;-73
2022/03/04 04:47:46;;;;;;;21.38;13.43;;;2.60;68.80;;;;;;5017541;28;20022;-73
2022/03/04 04:50:12;;;;;;;21.00;12.85;;;2.60;69.10;;;;;;5013964;28;20038;-73
2022/03/04 04:52:37;;;;;;;22.60;13.98;;;2.60;69.10;;;;;;5015991;28;20026;-73
2022/03/04 04:55:03;;;;;;;21.33;14.20;;;2.60;69.50;;;;;;5021287;28;20078;-74
2022/03/04 04:57:29;;;;;;;22.42;13.80;;;2.50;69.50;;;;;;5016532;28;20033;-73
2022/03/04 04:59:54;;;;;;;21.48;13.38;;;2.50;69.90;;;;;;5015712;28;20049;-72
2022/03/04 05:02:20;;;;;;;23.63;14.70;;;2.50;69.60;;;;;;5004396;28;20014;-73
2022/03/04 05:04:47;;;;;;;21.42;13.63;;;2.50;69.90;;;;;;5017715;28;20434;-73
2022/03/04 05:07:13;;;;;;;23.90;15.07;;;2.40;69.80;;;;;;5004275;28;20028;-74
2022/03/04 05:09:38;;;;;;;22.42;13.80;;;2.50;70.10;;;;;;5015897;28;20551;-73
2022/03/04 05:12:04;;;;;;;23.55;14.38;;;2.50;70.20;;;;;;5002616;28;20715;-73
2022/03/04 05:14:30;;;;;;;21.63;13.73;;;2.40;70.20;;;;;;5011766;28;20037;-73
2022/03/04 05:16:56;;;;;;;22.92;13.88;;;2.40;70.30;;;;;;5012082;28;20485;-74
2022/03/04 05:19:21;;;;;;;18.77;11.40;;;2.40;70.60;;;;;;5021822;28;20034;-74
2022/03/04 05:21:47;;;;;;;21.55;13.00;;;2.40;70.50;;;;;;5009844;28;20097;-74
2022/03/04 05:24:12;;;;;;;21.05;12.52;;;2.30;70.50;;;;;;5018550;28;20025;-74
2022/03/04 05:26:42;;;;;;;22.30;14.15;;;2.40;70.50;;;;;;5017051;28;20050;-74
2022/03/04 05:29:09;;;;;;;25.35;14.80;;;2.30;70.70;;;;;;5025649;28;20032;-74
2022/03/04 05:31:40;;;;;;;21.58;14.18;;;2.30;71.10;;;;;;5009510;28;20040;-73
2022/03/04 05:34:07;;;;;;;20.27;12.90;;;2.30;70.90;;;;;;5010970;28;20065;-74
2022/03/04 05:36:33;;;;;;;21.75;13.77;;;2.30;70.70;;;;;;5013435;28;20462;-73
2022/03/04 05:38:59;;;;;;;23.02;14.50;;;2.30;71.00;;;;;;5019212;28;20459;-73
2022/03/04 05:41:25;;;;;;;22.27;12.75;;;2.30;71.10;;;;;;5018357;28;20053;-74
2022/03/04 05:43:50;;;;;;;18.10;12.07;;;2.30;70.90;;;;;;5021316;28;20106;-73
2022/03/04 05:46:16;;;;;;;21.20;13.30;;;2.30;70.80;;;;;;5016616;28;20624;-74
2022/03/04 05:48:42;;;;;;;20.35;12.27;;;2.30;70.80;;;;;;5006699;28;20091;-73
2022/03/04 05:51:09;;;;;;;23.45;15.30;;;2.30;70.70;;;;;;5016059;28;20061;-74
2022/03/04 05:53:34;;;;;;;21.65;13.88;;;2.30;71.00;;;;;;5008889;28;20033;-72
2022/03/04 05:56:01;;;;;;;22.58;13.15;;;2.20;71.00;;;;;;5011182;28;20589;-73
2022/03/04 05:58:27;;;;;;;24.08;13.80;;;2.20;71.00;;;;;;5015972;28;20052;-72
2022/03/04 06:00:53;;;;;;;21.55;13.48;;;2.20;71.00;;;;;;5015011;28;20056;-72
2022/03/04 06:03:19;;;;;;;21.92;13.77;;;2.30;71.00;;;;;;5013866;28;20096;-73
2022/03/04 06:05:44;;;;;;;20.67;12.45;;;2.20;70.80;;;;;;5006050;28;20026;-73
2022/03/04 06:08:10;;;;;;;22.73;14.38;;;2.20;70.80;;;;;;5008537;28;20388;-72
2022/03/04 06:10:36;;;;;;;20.80;13.23;;;2.20;70.90;;;;;;5003265;28;20034;-72
2022/03/04 06:13:01;;;;;;;20.25;12.90;;;2.20;70.80;;;;;;5011844;28;20029;-73
2022/03/04 06:15:27;;;;;;;21.38;13.60;;;2.30;70.70;;;;;;5014633;28;20474;-73
2022/03/04 06:17:52;;;;;;;20.10;13.45;;;2.20;70.80;;;;;;5014171;28;20049;-73
2022/03/04 06:20:19;;;;;;;20.23;13.50;;;2.20;70.80;;;;;;5011995;28;20030;-73
2022/03/04 06:22:44;;;;;;;24.10;14.43;;;2.20;70.90;;;;;;5008139;28;20026;-73
2022/03/04 06:25:11;;;;;;;21.20;13.73;;;2.20;71.20;;;;;;5008721;28;20033;-73
2022/03/04 06:27:39;;;;;;;22.08;14.15;;;2.10;71.40;;;;;;5015260;28;20033;-72
2022/03/04 06:30:05;;;;;;;22.80;13.93;;;2.10;71.30;;;;;;5017178;28;20029;-73
2022/03/04 06:32:31;;;;;;;19.42;12.20;;;2.10;71.30;;;;;;5004844;28;20042;-74
2022/03/04 06:34:57;;;;;;;23.42;14.45;;;2.10;71.40;;;;;;5010265;28;20481;-74
2022/03/04 06:37:23;;;;;;;21.55;13.63;;;2.10;71.80;;;;;;5006636;28;20033;-74
2022/03/04 06:39:49;;;;;;;21.00;13.52;;;2.10;71.80;;;;;;5007591;28;20030;-73
2022/03/04 06:42:14;;;;;;;21.95;13.95;;;2.10;71.70;;;;;;5006263;28;20017;-73
2022/03/04 06:44:40;;;;;;;23.25;14.25;;;2.10;71.90;;;;;;5007891;28;20549;-73
2022/03/04 06:47:07;;;;;;;23.00;14.48;;;2.10;72.00;;;;;;5012078;28;20018;-74
2022/03/04 06:49:32;;;;;;;19.85;13.05;;;2.10;72.10;;;;;;5011575;28;20022;-73
2022/03/04 06:51:58;;;;;;;20.73;13.05;;;2.10;72.30;;;;;;5023688;28;20395;-73
2022/03/04 06:54:23;;;;;;;22.90;14.48;;;2.10;72.10;;;;;;5009101;28;20169;-73
2022/03/04 06:56:49;;;;;;;22.08;14.52;;;2.10;72.00;;;;;;5015600;28;20582;-74
2022/03/04 06:59:14;;;;;;;24.17;15.02;;;2.10;72.00;;;;;;5015714;28;20121;-73
2022/03/04 07:01:40;;;;;;;22.20;15.13;;;2.10;72.20;;;;;;5014090;28;20035;-75
2022/03/04 07:04:06;;;;;;;21.80;13.30;;;2.10;72.30;;;;;;5016519;28;20041;-73
2022/03/04 07:06:31;;;;;;;23.65;14.18;;;2.20;72.10;;;;;;5009425;28;20108;-74
2022/03/04 07:08:57;;;;;;;22.58;13.75;;;2.30;72.20;;;;;;5006334;28;20397;-73
2022/03/04 07:11:22;;;;;;;20.75;13.18;;;2.30;72.20;;;;;;5008288;28;20030;-73
2022/03/04 07:13:48;;;;;;;21.38;13.95;;;2.40;72.10;;;;;;5016477;28;20032;-74
2022/03/04 07:16:13;;;;;;;25.17;15.77;;;2.40;71.80;;;;;;5007112;28;20033;-74
2022/03/04 07:18:39;;;;;;;27.00;16.55;;;2.40;71.60;;;;;;5007722;28;20087;-75
2022/03/04 07:21:04;;;;;;;24.25;15.73;;;2.50;72.30;;;;;;5009939;28;20026;-72
2022/03/04 07:23:30;;;;;;;23.30;15.02;;;2.50;71.50;;;;;;5006032;28;20064;-73
2022/03/04 07:25:55;;;;;;;24.50;14.55;;;2.60;71.40;;;;;;5008556;28;20022;-72
2022/03/04 07:28:21;;;;;;;22.77;13.40;;;2.60;71.20;;;;;;5008691;28;20666;-72
2022/03/04 07:30:46;;;;;;;21.80;14.48;;;2.70;71.10;;;;;;5008029;28;20030;-72
2022/03/04 07:33:12;;;;;;;25.95;15.43;;;2.80;71.00;;;;;;5008004;28;20018;-71
2022/03/04 07:35:41;;;;;;;24.20;14.70;;;2.70;70.90;;;;;;5010459;28;20415;-71
2022/03/04 07:38:07;;;;;;;21.95;14.18;;;2.80;70.90;;;;;;5009040;28;20037;-71
2022/03/04 07:40:33;;;;;;;26.02;15.38;;;2.80;70.80;;;;;;5010759;28;20374;-71
2022/03/04 07:42:58;;;;;;;24.08;15.70;;;2.90;70.70;;;;;;5009474;28;20149;-71
2022/03/04 07:45:24;;;;;;;27.42;15.88;;;2.90;70.60;;;;;;5009052;28;20124;-72
2022/03/04 07:47:50;;;;;;;25.92;15.70;;;2.90;70.40;;;;;;5004349;28;20026;-71
2022/03/04 07:50:16;;;;;;;27.30;17.38;;;2.90;70.50;;;;;;5004926;28;20030;-72
2022/03/04 07:52:44;;;;;;;23.55;14.70;;;2.90;70.40;;;;;;5010434;28;20404;-73
2022/03/04 07:55:15;;;;;;;22.38;13.75;;;2.90;70.40;;;;;;5008435;28;20475;-72
2022/03/04 07:57:40;;;;;;;23.88;14.50;;;3.00;70.20;;;;;;5009352;28;20030;-73
2022/03/04 08:00:08;;;;;;;23.25;14.80;;;3.00;70.00;;;;;;5008848;28;20056;-74
2022/03/04 08:02:34;;;;;;;24.38;14.77;;;3.10;69.90;;;;;;5002818;28;20050;-74
2022/03/04 08:05:00;;;;;;;26.55;17.20;;;3.20;69.70;;;;;;5008817;28;20021;-73
2022/03/04 08:07:26;;;;;;;25.27;15.02;;;3.10;69.60;;;;;;5004022;28;20457;-72
2022/03/04 08:09:51;;;;;;;25.67;15.75;;;3.10;69.50;;;;;;5010414;28;20044;-72
2022/03/04 08:12:17;;;;;;;24.05;14.23;;;3.10;69.50;;;;;;5005881;28;20114;-72
2022/03/04 08:14:43;;;;;;;28.27;16.20;;;3.20;69.70;;;;;;5009817;28;20059;-72
2022/03/04 08:17:08;;;;;;;28.08;15.73;;;3.20;69.60;;;;;;5006101;28;20584;-72
2022/03/04 08:19:35;;;;;;;24.75;14.80;;;3.20;70.10;;;;;;5008290;28;20038;-71
2022/03/04 08:22:02;;;;;;;26.00;16.25;;;3.30;69.40;;;;;;5012671;28;20167;-72
2022/03/04 08:24:27;;;;;;;28.90;17.08;;;3.20;69.20;;;;;;5022256;28;20030;-72
2022/03/04 08:26:53;;;;;;;24.65;15.10;;;3.20;69.40;;;;;;5011531;28;20567;-72
2022/03/04 08:29:19;;;;;;;25.33;14.65;;;3.30;69.40;;;;;;5009343;28;20524;-71
2022/03/04 08:31:45;;;;;;;26.33;16.45;;;3.30;69.20;;;;;;5009242;28;20025;-72
2022/03/04 08:34:10;;;;;;;28.15;17.05;;;3.30;69.10;;;;;;5008158;28;20112;-76
2022/03/04 08:36:36;;;;;;;26.40;16.73;;;3.40;68.90;;;;;;5018158;28;20140;-73
2022/03/04 08:39:03;;;;;;;21.73;14.57;;;3.30;68.90;;;;;;5022037;28;20032;-73
2022/03/04 08:41:30;;;;;;;25.20;16.58;;;3.40;68.90;;;;;;5009059;28;20022;-74
2022/03/04 08:43:56;;;;;;;25.77;15.82;;;3.40;68.70;;;;;;5006367;28;20034;-74
2022/03/04 08:46:21;;;;;;;24.58;14.95;;;3.40;68.50;;;;;;5005402;28;20037;-73
2022/03/04 08:48:47;;;;;;;26.58;15.82;;;3.50;68.50;;;;;;5008208;28;20026;-73
2022/03/04 08:51:12;;;;;;;28.08;17.33;;;3.60;68.10;;;;;;5018072;28;20030;-74
2022/03/04 08:53:38;;;;;;;21.77;14.77;;;3.60;68.10;;;;;;5013305;28;20033;-74
2022/03/04 08:56:04;;;;;;;21.77;14.38;;;3.70;68.00;;;;;;5022131;28;20362;-74
2022/03/04 08:58:30;;;;;;;23.92;14.20;;;3.70;67.60;;;;;;5018578;28;20492;-74
2022/03/04 09:00:55;;;;;;;26.58;15.95;;;3.90;67.30;;;;;;5021758;28;20039;-74
2022/03/04 09:03:21;;;;;;;20.20;12.65;;;3.90;66.70;;;;;;5019621;28;20101;-75
2022/03/04 09:05:47;;;;;;;23.55;14.55;;;4.00;67.00;;;;;;5023198;28;20026;-75
2022/03/04 09:08:13;;;;;;;24.65;16.05;;;4.10;66.80;;;;;;5018481;28;20041;-74
2022/03/04 09:10:38;;;;;;;22.27;14.20;;;4.10;66.50;;;;;;5011339;28;20022;-73
2022/03/04 09:13:04;;;;;;;21.02;13.70;;;4.20;66.40;;;;;;5018806;28;20460;-73
2022/03/04 09:15:30;;;;;;;26.58;15.68;;;4.30;66.30;;;;;;5017512;28;20137;-74
2022/03/04 09:17:56;;;;;;;24.45;14.85;;;4.30;65.80;;;;;;5015133;28;20041;-74
2022/03/04 09:20:21;;;;;;;24.20;15.07;;;4.40;65.60;;;;;;5019603;28;20030;-74
2022/03/04 09:22:47;;;;;;;20.00;13.57;;;4.40;65.50;;;;;;5027902;28;20034;-74
2022/03/04 09:25:14;;;;;;;25.58;15.35;;;4.50;65.20;;;;;;5022978;28;20018;-74
2022/03/04 09:27:46;;;;;;;24.20;15.48;;;4.60;64.90;;;;;;5021899;28;20025;-74
2022/03/04 09:30:12;;;;;;;25.70;16.08;;;4.60;64.60;;;;;;5024428;28;20020;-75
2022/03/04 09:32:38;;;;;;;23.63;15.00;;;4.70;64.20;;;;;;5020257;28;20021;-75
2022/03/04 09:35:05;;;;;;;23.95;15.57;;;4.70;64.20;;;;;;5017625;28;20025;-74
2022/03/04 09:37:31;;;;;;;26.25;16.02;;;4.70;64.10;;;;;;4999290;28;20392;-74
2022/03/04 09:39:56;;;;;;;24.80;16.13;;;4.70;64.10;;;;;;5011139;28;20022;-73
2022/03/04 09:42:22;;;;;;;25.15;15.52;;;4.80;64.10;;;;;;5013644;28;20088;-72
2022/03/04 09:44:48;;;;;;;24.52;15.18;;;4.80;64.00;;;;;;5011161;28;20053;-73
2022/03/04 09:47:19;;;;;;;25.42;15.90;;;4.90;64.00;;;;;;5007946;28;20042;-73
2022/03/04 09:49:48;;;;;;;26.42;16.27;;;4.90;63.60;;;;;;5007084;28;20414;-72
2022/03/04 09:52:13;;;;;;;22.30;14.05;;;5.00;63.40;;;;;;5011512;28;20094;-74
2022/03/04 09:54:39;;;;;;;26.50;16.30;;;5.10;63.20;;;;;;5010396;28;20109;-74
2022/03/04 09:57:04;;;;;;;26.10;16.10;;;5.10;62.90;;;;;;5009855;28;20063;-74
2022/03/04 09:59:30;;;;;;;22.00;13.98;;;5.20;62.90;;;;;;5007912;28;20040;-75
2022/03/04 10:01:57;;;;;;;25.52;16.52;;;5.20;62.80;;;;;;5006711;28;20040;-77
2022/03/04 10:04:28;;;;;;;25.50;15.63;;;5.30;62.60;;;;;;5006213;28;20025;-74
2022/03/04 10:06:54;;;;;;;22.75;14.73;;;5.30;62.20;;;;;;5003843;28;20030;-73
2022/03/04 10:09:43;;;;;;;24.25;15.77;;;5.20;62.10;;;;;;5003989;28;20108;-74
2022/03/04 10:12:10;;;;;;;18.02;12.05;;;5.40;61.90;;;;;;5005118;28;20025;-74
2022/03/04 10:15:01;;;;;;;21.77;13.93;;;5.50;61.70;;;;;;5002460;28;20049;-75
2022/03/04 10:17:28;;;;;;;23.65;14.98;;;5.60;61.30;;;;;;5003639;28;20018;-73
2022/03/04 10:20:00;;;;;;;22.98;15.00;;;5.70;60.90;;;;;;5007149;28;20562;-74
2022/03/04 10:22:46;;;;;;;19.80;12.85;;;5.70;60.60;;;;;;5007392;28;20061;-74
2022/03/04 10:25:24;;;;;;;22.73;14.82;;;5.90;60.90;;;;;;5006421;28;20084;-76
2022/03/04 10:27:51;;;;;;;26.08;15.18;;;5.90;60.50;;;;;;5005082;28;20021;-75
2022/03/04 10:30:28;;;;;;;23.67;13.85;;;6.10;60.50;;;;;;5003280;28;20030;-75
2022/03/04 10:33:05;;;;;;;19.52;13.20;;;6.10;60.40;;;;;;5005013;28;20033;-72
2022/03/04 10:35:30;;;;;;;21.65;13.85;;;6.30;60.00;;;;;;5006253;28;20030;-75
2022/03/04 10:37:56;;;;;;;22.20;14.85;;;6.40;59.60;;;;;;5003160;28;20030;-73
2022/03/04 10:40:21;;;;;;;24.70;15.90;;;6.50;59.20;;;;;;5008046;28;20018;-73
2022/03/04 10:43:05;;;;;;;22.45;15.10;;;6.40;58.50;;;;;;5004983;28;20079;-72
2022/03/04 10:45:42;;;;;;;21.38;14.00;;;6.50;58.90;;;;;;5005876;28;20109;-75
2022/03/04 10:48:18;;;;;;;25.08;16.02;;;6.50;58.70;;;;;;4996793;28;20481;-72
2022/03/04 10:50:45;;;;;;;22.05;14.75;;;6.60;58.80;;;;;;5009099;28;20361;-73
2022/03/04 10:53:12;;;;;;;25.33;15.95;;;6.70;58.80;;;;;;5013220;28;20500;-74
2022/03/04 10:55:45;;;;;;;21.35;14.38;;;6.70;58.70;;;;;;5005725;28;20056;-73
2022/03/04 10:58:17;;;;;;;26.90;16.60;;;6.70;58.80;;;;;;5007299;28;20049;-74
2022/03/04 11:00:45;;;;;;;24.90;15.77;;;6.70;58.50;;;;;;5008267;28;20089;-73
2022/03/04 11:03:15;;;;;;;23.42;15.75;;;6.70;58.90;;;;;;5010791;28;20481;-72
2022/03/04 11:05:41;;;;;;;26.60;17.45;;;6.70;59.00;;;;;;5010700;28;20026;-73
2022/03/04 11:08:08;;;;;;;26.00;17.15;;;6.70;58.40;;;;;;5010420;28;20033;-72
2022/03/04 11:10:33;;;;;;;21.85;15.02;;;6.70;58.60;;;;;;5012188;28;20058;-72
2022/03/04 11:13:06;;;;;;;24.02;15.82;;;6.80;58.60;;;;;;5014631;28;20099;-71
2022/03/04 11:15:33;;;;;;;25.92;16.75;;;6.80;58.60;;;;;;5008746;28;20035;-72
2022/03/04 11:18:03;;;;;;;25.98;16.23;;;6.90;58.50;;;;;;5008860;28;20037;-71
2022/03/04 11:20:28;;;;;;;25.88;15.32;;;7.00;58.20;;;;;;5010182;28;20447;-72
2022/03/04 11:22:54;;;;;;;24.67;16.17;;;7.10;58.20;;;;;;5012901;28;20105;-72
2022/03/04 11:25:22;;;;;;;26.20;16.85;;;7.20;57.70;;;;;;5010815;28;20113;-71
2022/03/04 11:27:51;;;;;;;24.40;16.08;;;7.20;57.40;;;;;;5009053;28;20025;-72
2022/03/04 11:30:45;;;;;;;23.23;15.38;;;7.30;57.40;;;;;;5007577;28;20034;-72
2022/03/04 11:33:20;;;;;;;21.50;14.35;;;7.30;57.10;;;;;;5006510;28;20030;-72
2022/03/04 11:35:55;;;;;;;24.52;15.73;;;7.40;57.30;;;;;;5006157;28;20112;-72
2022/03/04 11:38:46;;;;;;;25.52;16.75;;;7.50;57.00;;;;;;5007053;28;20029;-71
2022/03/04 11:41:35;;;;;;;24.92;15.88;;;7.60;56.40;;;;;;5006535;28;20025;-74
2022/03/04 11:44:12;;;;;;;21.50;14.85;;;7.70;56.50;;;;;;5012306;28;20049;-71
2022/03/04 11:47:01;;;;;;;27.73;17.25;;;7.70;56.20;;;;;;5010861;28;20025;-72
2022/03/04 11:49:41;;;;;;;24.95;16.55;;;7.70;55.70;;;;;;5010675;28;20054;-71
2022/03/04 11:52:15;;;;;;;24.00;15.75;;;7.80;55.90;;;;;;5012253;28;20021;-72
2022/03/04 11:55:02;;;;;;;24.20;16.20;;;7.80;55.60;;;;;;5004706;28;20631;-71
2022/03/04 11:57:30;;;;;;;26.23;16.48;;;7.90;55.30;;;;;;5000087;28;20041;-72
2022/03/04 11:59:58;;;;;;;25.70;17.30;;;8.00;55.10;;;;;;5009004;28;20042;-71
2022/03/04 12:02:52;;;;;;;27.15;17.33;;;8.10;54.60;;;;;;5009603;28;20026;-71
2022/03/04 12:05:19;;;;;;;24.00;16.13;;;8.10;53.60;;;;;;5006707;28;20554;-71
2022/03/04 12:07:46;;;;;;;23.90;16.30;;;8.20;53.00;;;;;;5006146;28;20325;-71
2022/03/04 12:10:16;;;;;;;23.48;15.50;;;8.30;52.80;;;;;;5009196;28;20025;-72
2022/03/04 12:13:14;;;;;;;25.65;16.10;;;8.40;53.00;;;;;;5011627;28;20029;-71
2022/03/04 12:15:52;;;;;;;25.27;17.35;;;8.50;52.40;;;;;;5009062;28;20796;-71
2022/03/04 12:18:25;;;;;;;22.08;14.02;;;8.50;52.60;;;;;;5006095;28;20113;-71
2022/03/04 12:21:10;;;;;;;21.60;13.75;;;8.60;52.80;;;;;;5007865;28;20026;-72
2022/03/04 12:23:42;;;;;;;20.58;13.95;;;8.70;52.10;;;;;;5008339;28;20030;-71
2022/03/04 12:26:15;;;;;;;23.77;15.95;;;8.80;51.90;;;;;;5008722;28;20476;-71
2022/03/04 12:29:04;;;;;;;23.17;16.00;;;8.90;51.30;;;;;;5012459;28;20417;-71
2022/03/04 12:31:38;;;;;;;23.85;16.60;;;8.90;49.80;;;;;;5010050;28;20026;-72
2022/03/04 12:34:05;;;;;;;20.45;14.30;;;9.10;50.20;;;;;;5009763;28;20049;-71
2022/03/04 12:36:31;;;;;;;24.13;15.13;;;9.10;49.80;;;;;;5007196;28;20030;-72